Time;durP1;ratioP1;P1;durP2;ratioP2;P2;SDS_P1;SDS_P2;PMS_P1;PMS_P2;Temp;Humidity;BMP_temperature;BMP_pressure;BME280_temperature;BME280_humidity;BME280_pressure;Samples;Min_cycle;Max_cycle;Signal;HPM_P1;HPM_P2
2022/06/19 00:01:16;;;;;;;12.38;4.47;;;;;;;27.54;40.37;98375.22;4954238;29;20039;-48
2022/06/19 00:03:49;;;;;;;7.57;3.88;;;;;;;27.50;40.59;98366.97;4954394;29;20020;-49
2022/06/19 00:06:16;;;;;;;10.30;3.28;;;;;;;27.46;40.97;98369.50;4954190;29;20089;-49
2022/06/19 00:08:43;;;;;;;7.43;3.60;;;;;;;27.46;40.67;98363.34;4955457;28;20023;-47
2022/06/19 00:11:14;;;;;;;11.63;5.03;;;;;;;27.48;40.89;98377.28;4955409;28;20405;-47
2022/06/19 00:13:40;;;;;;;7.35;3.85;;;;;;;27.39;41.02;98371.91;4954193;29;20038;-47
2022/06/19 00:16:05;;;;;;;12.80;4.20;;;;;;;27.33;41.32;98370.50;4955294;28;20031;-46
2022/06/19 00:18:31;;;;;;;7.88;3.95;;;;;;;27.33;41.77;98370.50;4953979;29;20031;-46
2022/06/19 00:20:57;;;;;;;8.57;3.88;;;;;;;27.43;40.85;98364.78;4953600;29;20501;-47
2022/06/19 00:23:23;;;;;;;10.30;4.03;;;;;;;27.38;41.09;98366.84;4954697;28;20036;-47
2022/06/19 00:25:49;;;;;;;5.38;3.60;;;;;;;27.40;41.14;98364.63;4955099;29;20039;-47
2022/06/19 00:28:14;;;;;;;7.68;3.83;;;;;;;27.34;41.38;98366.69;4953751;29;20050;-47
2022/06/19 00:30:40;;;;;;;11.95;4.00;;;;;;;27.22;41.72;98356.50;4955026;29;20059;-47
2022/06/19 00:33:06;;;;;;;6.60;3.70;;;;;;;27.17;41.66;98348.59;4955011;29;20401;-48
2022/06/19 00:35:32;;;;;;;11.95;4.03;;;;;;;27.17;42.14;98350.53;4953664;29;20038;-49
2022/06/19 00:37:58;;;;;;;8.93;4.28;;;;;;;27.12;41.99;98337.19;4953626;29;20020;-49
2022/06/19 00:40:26;;;;;;;12.48;3.72;;;;;;;27.10;42.11;98327.53;4953567;29;20061;-48
2022/06/19 00:42:52;;;;;;;11.63;4.70;;;;;;;27.13;41.88;98331.50;4953483;29;20568;-49
2022/06/19 00:45:32;;;;;;;9.73;4.47;;;;;;;27.05;42.21;98326.91;4954721;28;20031;-49
2022/06/19 00:48:01;;;;;;;8.93;3.95;;;;;;;26.94;42.63;98341.78;4954742;28;20034;-47
2022/06/19 00:50:33;;;;;;;10.32;4.43;;;;;;;26.86;42.43;98333.41;4954664;28;20031;-46
2022/06/19 00:53:01;;;;;;;10.18;3.80;;;;;;;26.82;42.56;98337.84;4954707;28;20568;-47
2022/06/19 00:55:39;;;;;;;10.88;5.00;;;;;;;26.81;42.94;98338.94;4954557;28;20031;-47
2022/06/19 00:58:05;;;;;;;11.88;4.55;;;;;;;26.85;43.00;98333.72;4954541;28;20043;-46
2022/06/19 01:00:31;;;;;;;9.05;3.83;;;;;;;26.80;42.85;98334.69;4953172;29;20533;-46
2022/06/19 01:03:01;;;;;;;8.80;3.97;;;;;;;26.81;42.61;98333.56;4953104;29;20023;-47
2022/06/19 01:05:29;;;;;;;12.07;4.05;;;;;;;26.70;43.15;98329.56;4953119;29;20130;-47
2022/06/19 01:07:58;;;;;;;9.02;4.15;;;;;;;26.76;43.04;98331.00;4954398;28;20074;-46
2022/06/19 01:10:24;;;;;;;8.30;4.05;;;;;;;26.77;42.88;98326.44;4954376;28;20031;-49
2022/06/19 01:12:51;;;;;;;15.00;4.72;;;;;;;26.69;43.24;98336.09;4953285;29;20069;-46
2022/06/19 01:15:22;;;;;;;12.23;3.72;;;;;;;26.68;43.13;98334.47;4953188;29;20504;-49
2022/06/19 01:17:54;;;;;;;11.45;5.00;;;;;;;26.64;43.47;98328.97;4954292;28;20027;-49
2022/06/19 01:20:21;;;;;;;10.55;4.00;;;;;;;26.52;43.92;98336.81;4954211;28;20062;-49
2022/06/19 01:22:57;;;;;;;8.02;4.10;;;;;;;26.41;44.05;98336.31;4953882;28;20133;-49
2022/06/19 01:25:28;;;;;;;6.40;4.30;;;;;;;26.27;44.19;98341.81;4954237;28;20094;-49
2022/06/19 01:30:48;;;;;;;8.98;4.25;;;;;;;26.13;44.82;98330.38;4954086;29;20063;-49
2022/06/19 01:33:22;;;;;;;9.32;4.55;;;;;;;26.15;44.70;98327.38;4936764;29;20035;-49
2022/06/19 01:35:52;;;;;;;8.27;3.97;;;;;;;26.07;44.86;98320.88;4951952;28;20035;-48
2022/06/19 01:38:21;;;;;;;9.20;3.97;;;;;;;26.01;45.25;98339.03;4952643;29;20046;-49
2022/06/19 01:40:59;;;;;;;9.55;4.13;;;;;;;25.95;45.06;98323.38;4953916;28;20034;-49
2022/06/19 01:43:25;;;;;;;9.73;4.18;;;;;;;25.90;45.34;98337.75;4953996;28;20031;-48
2022/06/19 01:45:53;;;;;;;7.70;3.90;;;;;;;25.93;45.49;98326.34;4952575;29;20032;-48
2022/06/19 01:48:25;;;;;;;7.10;4.20;;;;;;;25.96;45.21;98322.25;4952839;29;20031;-48
2022/06/19 01:50:53;;;;;;;6.97;4.15;;;;;;;25.89;45.37;98320.78;4953883;28;20027;-49
2022/06/19 01:53:29;;;;;;;10.70;4.03;;;;;;;25.87;45.39;98308.75;4953774;28;20033;-49
2022/06/19 01:55:55;;;;;;;6.20;4.05;;;;;;;25.85;45.38;98306.34;4953808;28;20035;-49
2022/06/19 01:58:27;;;;;;;10.90;3.92;;;;;;;25.85;45.61;98309.06;4952465;29;20038;-48
2022/06/19 02:00:53;;;;;;;7.13;3.95;;;;;;;25.83;45.48;98294.34;4953705;28;20508;-48
2022/06/19 02:03:39;;;;;;;12.75;4.47;;;;;;;25.82;45.79;98293.56;4952340;29;20058;-49
2022/06/19 02:06:07;;;;;;;8.52;4.60;;;;;;;25.77;45.65;98307.13;4952394;29;20036;-49
2022/06/19 02:08:35;;;;;;;8.25;4.72;;;;;;;25.74;45.68;98290.84;4953652;28;20051;-49
2022/06/19 02:11:03;;;;;;;8.40;4.28;;;;;;;25.66;46.01;98295.06;4953550;28;20019;-48
2022/06/19 02:13:31;;;;;;;9.27;4.35;;;;;;;25.64;45.86;98286.53;4953619;28;20030;-48
2022/06/19 02:15:57;;;;;;;13.95;4.45;;;;;;;25.69;45.95;98281.78;4953597;28;20035;-49
2022/06/19 02:18:33;;;;;;;6.90;3.80;;;;;;;25.66;45.97;98276.25;4953595;29;20085;-48
2022/06/19 02:20:59;;;;;;;13.10;4.40;;;;;;;25.65;46.07;98282.72;4953300;28;20034;-48
2022/06/19 02:23:35;;;;;;;6.70;3.90;;;;;;;25.63;46.32;98274.19;4953581;28;20455;-47
2022/06/19 02:26:03;;;;;;;9.93;4.32;;;;;;;25.61;46.12;98271.00;4953434;28;20082;-47
2022/06/19 02:28:30;;;;;;;7.65;3.90;;;;;;;25.58;46.38;98263.56;4953472;28;20042;-47
2022/06/19 02:30:56;;;;;;;7.45;4.50;;;;;;;25.58;46.43;98258.19;4953461;28;20441;-47
2022/06/19 02:33:27;;;;;;;12.00;5.78;;;;;;;25.54;46.42;98260.72;4953448;28;20028;-46
2022/06/19 02:35:53;;;;;;;51.78;46.85;;;;;;;25.56;46.35;98255.03;4953423;28;20062;-47
2022/06/19 02:38:22;;;;;;;46.83;37.03;;;;;;;25.50;46.49;98265.91;4953376;28;20023;-46
2022/06/19 02:40:58;;;;;;;26.27;12.82;;;;;;;25.47;46.44;98271.91;4952077;29;20134;-47
2022/06/19 02:43:35;;;;;;;35.28;26.10;;;;;;;25.42;47.05;98266.66;4953334;28;20031;-47
2022/06/19 02:46:05;;;;;;;44.42;37.33;;;;;;;25.51;47.21;98272.88;4953277;28;20032;-47
2022/06/19 02:48:32;;;;;;;18.98;10.80;;;;;;;25.61;46.89;98290.59;4956462;28;20480;-46
2022/06/19 02:51:00;;;;;;;10.88;5.05;;;;;;;25.67;46.76;98294.75;4955542;29;20102;-47
2022/06/19 02:53:27;;;;;;;10.18;4.85;;;;;;;25.69;46.65;98300.59;4956880;28;20019;-46
2022/06/19 02:55:54;;;;;;;22.45;10.45;;;;;;;25.89;47.93;98298.47;4956782;28;20026;-46
2022/06/19 02:58:20;;;;;;;8.95;4.45;;;;;;;26.29;46.02;98293.09;4956944;28;20110;-47
2022/06/19 03:00:48;;;;;;;8.68;5.53;;;;;;;26.28;46.03;98286.91;4956685;28;20444;-46
2022/06/19 03:03:19;;;;;;;17.98;7.40;;;;;;;26.50;45.63;98298.66;4956503;28;20023;-47
2022/06/19 03:05:45;;;;;;;26.08;6.90;;;;;;;26.53;44.98;98297.25;4956585;28;20082;-47
2022/06/19 03:08:11;;;;;;;18.15;5.18;;;;;;;26.39;45.31;98294.69;4956563;28;20031;-47
2022/06/19 03:10:37;;;;;;;14.80;5.15;;;;;;;26.40;45.33;98298.94;4956547;29;20054;-46
2022/06/19 03:13:02;;;;;;;13.20;5.53;;;;;;;26.29;45.33;98296.56;4955140;29;20035;-47
2022/06/19 03:15:28;;;;;;;9.80;5.63;;;;;;;26.22;45.10;98284.66;4956435;29;20399;-46
2022/06/19 03:17:54;;;;;;;221.13;186.38;;;;;;;26.10;45.52;98294.16;4956414;28;20019;-47
2022/06/19 03:20:22;;;;;;;419.60;219.95;;;;;;;25.95;46.20;98291.88;4956344;28;20051;-47
2022/06/19 03:22:48;;;;;;;32.65;15.98;;;;;;;25.83;45.81;98300.50;4956073;28;20497;-47
2022/06/19 03:25:13;;;;;;;50.75;29.52;;;;;;;25.67;46.45;98291.25;4954996;29;20564;-47
2022/06/19 03:27:39;;;;;;;13.98;8.77;;;;;;;25.64;46.48;98291.91;4956276;28;20445;-47
2022/06/19 03:30:06;;;;;;;29.58;21.73;;;;;;;25.65;46.33;98288.88;4954921;29;20489;-47
2022/06/19 03:32:34;;;;;;;18.13;8.52;;;;;;;25.63;46.48;98280.34;4956222;28;20039;-46
2022/06/19 03:35:00;;;;;;;40.08;35.83;;;;;;;25.59;46.84;98297.41;4956394;28;20027;-47
2022/06/19 03:37:26;;;;;;;57.03;44.92;;;;;;;25.62;47.15;98286.03;4956100;28;20496;-48
2022/06/19 03:39:52;;;;;;;17.38;11.07;;;;;;;25.79;46.39;98285.31;4954714;29;20038;-48
2022/06/19 03:42:18;;;;;;;13.82;9.43;;;;;;;25.70;45.92;98280.69;4955939;28;20031;-48
2022/06/19 03:44:44;;;;;;;12.35;6.57;;;;;;;25.47;46.74;98276.47;4955954;28;20031;-49
2022/06/19 03:47:15;;;;;;;8.95;5.60;;;;;;;25.40;46.81;98279.59;4954554;29;20055;-49
2022/06/19 03:49:40;;;;;;;19.58;7.90;;;;;;;25.34;47.17;98275.47;4955910;28;20412;-49
2022/06/19 03:52:07;;;;;;;7.47;5.13;;;;;;;25.34;47.11;98280.06;4955794;28;20065;-48
2022/06/19 03:54:33;;;;;;;11.48;5.38;;;;;;;25.28;46.99;98288.22;4955831;29;20023;-49
2022/06/19 03:56:59;;;;;;;6.97;4.38;;;;;;;25.17;47.51;98286.84;4955663;28;20512;-48
2022/06/19 03:59:25;;;;;;;8.32;4.75;;;;;;;25.10;47.69;98281.13;4953480;28;20031;-48
2022/06/19 04:01:51;;;;;;;9.35;5.00;;;;;;;25.04;47.96;98285.81;4955566;28;20086;-49
2022/06/19 04:04:17;;;;;;;9.00;4.43;;;;;;;25.05;47.71;98282.06;4955578;29;20154;-48
2022/06/19 04:06:43;;;;;;;7.63;4.80;;;;;;;25.05;47.66;98284.75;4970268;28;20378;-49
2022/06/19 04:09:13;;;;;;;7.03;4.35;;;;;;;25.05;47.83;98289.28;4954154;29;20027;-48
2022/06/19 04:11:38;;;;;;;7.28;4.85;;;;;;;25.08;47.87;98283.31;4955760;28;20097;-49
2022/06/19 04:14:04;;;;;;;10.82;7.30;;;;;;;25.10;47.70;98283.81;4955427;28;20557;-49
2022/06/19 04:16:32;;;;;;;16.98;9.98;;;;;;;25.09;47.60;98274.16;4955240;29;20154;-49
2022/06/19 04:19:02;;;;;;;11.57;5.43;;;;;;;25.08;47.83;98270.69;4954031;29;20034;-49
2022/06/19 04:21:31;;;;;;;5.68;4.80;;;;;;;25.10;48.01;98278.44;4955026;28;20130;-49
2022/06/19 04:24:04;;;;;;;7.45;5.22;;;;;;;25.17;47.65;98278.78;4955238;28;20023;-49
2022/06/19 04:26:34;;;;;;;6.82;4.25;;;;;;;25.39;47.03;98266.47;4955238;28;20027;-49
2022/06/19 04:29:00;;;;;;;12.05;5.10;;;;;;;25.64;46.40;98265.81;4955070;28;20050;-48
2022/06/19 04:31:26;;;;;;;8.38;4.55;;;;;;;25.85;45.97;98270.63;4955053;28;20027;-49
2022/06/19 04:33:55;;;;;;;8.75;5.38;;;;;;;26.06;45.37;98277.06;4969790;28;20027;-48
2022/06/19 04:36:24;;;;;;;10.52;4.65;;;;;;;26.22;45.18;98269.34;4954986;28;20107;-48
2022/06/19 04:38:51;;;;;;;7.75;5.00;;;;;;;26.32;44.93;98273.63;4954842;28;20046;-48
2022/06/19 04:41:29;;;;;;;10.18;5.00;;;;;;;26.43;44.40;98260.66;4937554;29;20031;-49
2022/06/19 04:43:59;;;;;;;10.98;4.75;;;;;;;26.63;44.17;98256.59;4953543;29;20045;-49
2022/06/19 04:46:27;;;;;;;7.05;4.53;;;;;;;26.86;43.35;98249.94;4954793;28;20426;-49
2022/06/19 04:48:53;;;;;;;9.68;4.70;;;;;;;27.06;42.80;98245.78;4954762;28;20482;-49
2022/06/19 04:51:19;;;;;;;8.05;5.05;;;;;;;27.24;42.65;98251.94;4954698;28;20015;-48
2022/06/19 04:53:46;;;;;;;13.10;5.10;;;;;;;27.44;42.17;98236.19;4954658;28;20024;-49
2022/06/19 04:56:14;;;;;;;9.32;5.07;;;;;;;27.69;41.40;98234.53;4954613;28;20448;-49
2022/06/19 04:58:40;;;;;;;8.52;5.03;;;;;;;27.89;40.97;98244.59;4954636;28;20094;-49
2022/06/19 05:01:29;;;;;;;12.25;4.80;;;;;;;28.21;40.80;98231.56;4954522;28;20078;-49
2022/06/19 05:03:58;;;;;;;8.55;4.55;;;;;;;28.45;40.03;98251.69;4954556;28;20034;-49
2022/06/19 05:06:25;;;;;;;6.20;4.05;;;;;;;28.59;39.70;98240.66;4954469;28;20625;-49
2022/06/19 05:08:51;;;;;;;6.45;4.60;;;;;;;28.74;38.87;98247.38;4969169;28;20409;-49
2022/06/19 05:11:17;;;;;;;9.15;4.40;;;;;;;28.99;38.56;98243.63;4954259;28;20110;-49
2022/06/19 05:13:44;;;;;;;8.45;4.68;;;;;;;29.30;37.84;98253.22;4954288;28;20030;-49
2022/06/19 05:16:18;;;;;;;6.82;4.30;;;;;;;29.56;37.38;98252.09;4954314;28;20027;-48
2022/06/19 05:18:44;;;;;;;10.93;4.75;;;;;;;29.74;36.76;98244.59;4953021;29;20415;-49
2022/06/19 05:21:11;;;;;;;7.93;4.78;;;;;;;30.11;36.21;98245.38;4953931;28;20043;-49
2022/06/19 05:23:41;;;;;;;8.80;5.10;;;;;;;30.48;35.40;98249.94;4952994;29;20043;-49
2022/06/19 05:26:12;;;;;;;8.82;4.25;;;;;;;30.97;34.88;98241.63;4952871;29;20047;-48
2022/06/19 05:28:38;;;;;;;9.13;4.85;;;;;;;31.35;33.97;98243.00;4954418;28;20030;-48
2022/06/19 05:31:04;;;;;;;7.32;4.45;;;;;;;31.80;33.41;98233.66;4968836;28;20126;-49
2022/06/19 05:33:31;;;;;;;7.57;4.18;;;;;;;32.01;32.70;98233.38;4954016;29;20110;-49
2022/06/19 05:35:57;;;;;;;6.38;4.75;;;;;;;32.19;32.58;98242.69;4952661;29;20035;-49
2022/06/19 05:38:23;;;;;;;11.88;4.95;;;;;;;32.69;32.13;98232.13;4953987;29;20027;-49
2022/06/19 05:40:51;;;;;;;7.65;4.22;;;;;;;33.19;30.56;98235.00;4953919;28;20552;-49
2022/06/19 05:43:19;;;;;;;5.35;4.40;;;;;;;33.42;30.66;98252.13;4953841;28;20031;-49
2022/06/19 05:45:52;;;;;;;7.28;4.30;;;;;;;33.57;30.54;98252.34;4953845;28;20019;-49
2022/06/19 05:48:18;;;;;;;13.07;5.10;;;;;;;33.92;29.86;98251.34;4952593;29;20051;-49
2022/06/19 05:50:44;;;;;;;8.32;4.93;;;;;;;34.17;29.35;98247.06;4952486;29;20027;-48
2022/06/19 05:53:10;;;;;;;8.93;4.68;;;;;;;34.13;29.37;98235.31;4952515;29;20037;-49
2022/06/19 05:55:36;;;;;;;9.50;4.05;;;;;;;34.26;28.87;98235.91;4952439;29;20027;-48
2022/06/19 05:58:01;;;;;;;9.30;4.10;;;;;;;34.53;28.81;98236.63;4952441;29;20055;-49
2022/06/19 06:00:27;;;;;;;8.00;4.38;;;;;;;34.64;28.41;98246.88;4952429;29;20027;-49
2022/06/19 06:02:53;;;;;;;10.00;4.75;;;;;;;34.74;28.19;98244.28;4953581;28;20086;-49
2022/06/19 06:05:18;;;;;;;9.98;4.20;;;;;;;35.14;27.44;98241.97;4952415;29;20401;-49
2022/06/19 06:07:44;;;;;;;12.18;4.78;;;;;;;35.42;27.56;98244.22;4953697;29;20027;-49
2022/06/19 06:10:11;;;;;;;13.65;4.40;;;;;;;35.74;26.64;98230.06;4952372;29;20401;-49
2022/06/19 06:12:37;;;;;;;6.70;4.07;;;;;;;35.52;26.57;98229.09;4952309;29;20042;-48
2022/06/19 06:15:02;;;;;;;5.60;4.15;;;;;;;35.27;27.04;98228.88;4953853;29;20027;-48
2022/06/19 06:17:28;;;;;;;6.10;3.80;;;;;;;34.87;27.29;98238.59;4952286;29;20023;-49
2022/06/19 06:19:54;;;;;;;7.07;4.10;;;;;;;34.77;27.69;98237.31;4953498;29;20034;-47
2022/06/19 06:22:19;;;;;;;9.75;4.35;;;;;;;34.92;27.54;98230.84;4953404;28;20043;-47
2022/06/19 06:24:45;;;;;;;8.57;4.10;;;;;;;34.86;27.28;98215.22;4956038;29;20034;-48
2022/06/19 06:27:11;;;;;;;7.75;4.43;;;;;;;35.00;27.12;98221.59;4957319;28;20054;-47
2022/06/19 06:29:36;;;;;;;10.55;3.90;;;;;;;35.30;27.14;98233.59;4957296;28;20102;-49
2022/06/19 06:32:02;;;;;;;9.95;4.03;;;;;;;35.29;26.95;98219.13;4957243;28;20031;-49
2022/06/19 06:34:28;;;;;;;6.30;4.10;;;;;;;35.56;26.81;98232.63;4955877;29;20497;-48
2022/06/19 06:36:54;;;;;;;9.15;4.28;;;;;;;35.92;26.29;98235.59;4957108;28;20113;-49
2022/06/19 06:39:20;;;;;;;9.15;4.63;;;;;;;35.89;26.24;98228.97;4955828;29;20031;-49
2022/06/19 06:41:46;;;;;;;9.13;4.30;;;;;;;35.71;27.09;98234.31;4957010;28;20505;-49
2022/06/19 06:44:15;;;;;;;7.72;3.78;;;;;;;35.06;27.65;98235.66;4955734;29;20031;-49
2022/06/19 06:46:41;;;;;;;11.50;4.75;;;;;;;35.29;27.46;98246.41;4956952;28;20027;-49
2022/06/19 06:49:08;;;;;;;10.85;4.07;;;;;;;35.53;26.72;98250.53;4956969;28;20027;-49
2022/06/19 06:51:34;;;;;;;7.70;3.83;;;;;;;35.86;26.33;98246.13;4956834;28;20031;-49
2022/06/19 06:54:00;;;;;;;7.90;4.00;;;;;;;36.10;26.41;98236.53;4956916;28;20031;-48
2022/06/19 06:56:31;;;;;;;6.13;3.92;;;;;;;36.33;25.61;98239.00;4956829;28;20023;-47
2022/06/19 06:59:00;;;;;;;7.50;4.20;;;;;;;36.53;25.31;98230.47;4955544;29;20126;-47
2022/06/19 07:01:29;;;;;;;7.60;4.45;;;;;;;37.42;24.27;98232.63;4956640;28;20438;-48
2022/06/19 07:03:55;;;;;;;7.47;4.07;;;;;;;37.89;23.78;98241.63;4956610;28;20039;-48
2022/06/19 07:06:26;;;;;;;9.88;4.28;;;;;;;37.92;23.67;98235.34;4956586;28;20485;-48
2022/06/19 07:08:52;;;;;;;9.90;3.90;;;;;;;37.53;23.76;98227.94;4955320;29;20030;-48
2022/06/19 07:11:23;;;;;;;9.55;3.97;;;;;;;37.41;24.01;98231.09;4955213;29;20431;-49
2022/06/19 07:13:49;;;;;;;7.80;3.97;;;;;;;37.94;23.47;98222.03;4955238;29;20031;-47
2022/06/19 07:16:15;;;;;;;11.40;4.47;;;;;;;38.07;23.39;98230.63;4955170;29;20062;-48
2022/06/19 07:18:41;;;;;;;8.27;4.13;;;;;;;38.12;23.48;98232.97;4956464;29;20075;-48
2022/06/19 07:21:08;;;;;;;8.68;4.22;;;;;;;37.98;22.97;98231.03;4956170;28;20066;-48
2022/06/19 07:23:34;;;;;;;8.88;4.20;;;;;;;37.93;23.66;98236.94;4956300;28;20027;-49
2022/06/19 07:25:59;;;;;;;8.13;4.30;;;;;;;37.69;22.97;98226.78;4954980;29;20496;-49
2022/06/19 07:28:25;;;;;;;12.02;4.18;;;;;;;37.02;24.01;98229.06;4954977;29;20023;-49
2022/06/19 07:30:52;;;;;;;6.13;3.80;;;;;;;36.93;24.36;98236.88;4956186;28;20110;-50
2022/06/19 07:33:18;;;;;;;5.40;3.58;;;;;;;36.89;24.40;98225.16;4953826;28;20072;-49
2022/06/19 07:35:43;;;;;;;8.15;3.95;;;;;;;37.15;24.44;98216.59;4955980;28;20027;-48
2022/06/19 07:38:09;;;;;;;10.65;4.00;;;;;;;37.45;24.14;98211.91;4954772;29;20027;-49
2022/06/19 07:40:36;;;;;;;13.02;4.13;;;;;;;37.57;23.52;98219.75;4954702;29;20066;-49
2022/06/19 07:43:04;;;;;;;7.20;3.80;;;;;;;37.84;23.01;98216.59;4955974;28;20023;-49
2022/06/19 07:45:30;;;;;;;12.85;3.95;;;;;;;38.12;23.08;98235.72;4954613;29;20133;-49
2022/06/19 07:50:47;;;;;;;10.95;4.00;;;;;;;37.91;23.00;98225.59;4955894;29;20101;-47
2022/06/19 07:53:13;;;;;;;8.80;3.92;;;;;;;38.07;22.16;98232.59;4954503;29;20027;-47
2022/06/19 07:55:39;;;;;;;6.80;3.72;;;;;;;38.13;22.76;98234.56;4956030;28;20405;-48
2022/06/19 07:58:06;;;;;;;8.55;3.70;;;;;;;38.20;22.02;98225.53;4955691;29;20020;-47
2022/06/19 08:00:36;;;;;;;10.35;4.13;;;;;;;38.44;22.02;98220.34;4955631;28;20024;-47
2022/06/19 08:03:02;;;;;;;6.60;3.85;;;;;;;38.96;21.72;98213.00;4955624;28;20023;-48
2022/06/19 08:05:34;;;;;;;9.13;3.60;;;;;;;39.11;21.40;98223.91;4955513;29;20046;-48
2022/06/19 08:08:01;;;;;;;5.50;3.65;;;;;;;39.17;20.83;98216.81;4954351;29;20031;-48
2022/06/19 08:10:35;;;;;;;8.05;4.22;;;;;;;39.09;20.97;98216.06;4954204;29;20038;-47
2022/06/19 08:13:01;;;;;;;7.30;4.00;;;;;;;39.46;20.69;98202.88;4955791;28;20105;-48
2022/06/19 08:15:27;;;;;;;9.15;4.32;;;;;;;40.08;20.26;98198.31;4954102;29;20505;-48
2022/06/19 08:17:53;;;;;;;7.88;4.57;;;;;;;40.65;20.00;98189.38;4955351;28;20023;-48
2022/06/19 08:20:21;;;;;;;7.85;3.63;;;;;;;40.68;19.73;98204.25;4955415;28;20058;-50
2022/06/19 08:22:47;;;;;;;12.38;4.13;;;;;;;40.98;19.58;98199.94;4953798;29;20085;-50
2022/06/19 08:25:15;;;;;;;8.90;3.58;;;;;;;40.84;19.04;98196.19;4953992;29;20027;-52
2022/06/19 08:27:43;;;;;;;9.15;3.85;;;;;;;40.27;19.78;98196.94;4953906;29;20027;-51
2022/06/19 08:30:15;;;;;;;8.13;3.75;;;;;;;40.17;19.94;98187.63;4955097;28;20029;-50
2022/06/19 08:32:41;;;;;;;9.18;3.72;;;;;;;39.58;20.69;98185.09;4955080;28;20098;-49
2022/06/19 08:35:07;;;;;;;196.13;175.57;;;;;;;39.37;20.70;98191.56;4953768;29;20027;-51
2022/06/19 08:37:36;;;;;;;131.82;108.85;;;;;;;39.76;20.90;98188.44;4953665;29;20412;-50
2022/06/19 08:40:25;;;;;;;67.57;51.20;;;;;;;40.49;20.17;98178.22;4922203;29;20062;-48
2022/06/19 08:43:16;;;;;;;15.90;10.82;;;;;;;40.84;19.42;98189.91;4953587;29;20031;-50
2022/06/19 08:45:58;;;;;;;17.13;11.68;;;;;;;40.89;19.61;98181.16;4954474;28;20035;-50
2022/06/19 08:48:35;;;;;;;11.23;6.55;;;;;;;41.63;18.76;98174.88;4953626;29;20059;-49
2022/06/19 08:51:09;;;;;;;72.28;39.60;;;;;;;41.47;18.47;98170.78;4953531;29;20094;-49
2022/06/19 08:53:59;;;;;;;31.80;15.60;;;;;;;41.35;19.02;98184.41;4954802;28;20098;-50
2022/06/19 08:56:50;;;;;;;12.02;6.20;;;;;;;41.64;19.21;98179.97;4954694;28;20387;-50
2022/06/19 08:59:30;;;;;;;8.18;3.78;;;;;;;41.31;18.65;98181.69;4954723;28;20054;-50
2022/06/19 09:02:38;;;;;;;411.98;366.83;;;;;;;40.82;18.99;98178.53;4954497;29;20453;-50
2022/06/19 09:08:12;;;;;;;99.13;89.95;;;;;;;40.34;19.86;98167.38;4914005;29;20064;-49
2022/06/19 09:10:47;;;;;;;17.88;15.13;;;;;;;40.79;19.44;98158.16;4914098;29;20395;-50
2022/06/19 09:13:36;;;;;;;13.80;7.22;;;;;;;41.68;18.52;98166.91;4914178;29;20072;-50
2022/06/19 09:16:10;;;;;;;12.98;6.25;;;;;;;41.98;17.75;98180.88;4898238;29;20036;-50
2022/06/19 09:19:13;;;;;;;6.47;3.55;;;;;;;41.40;17.88;98187.44;4898121;29;20078;-50
2022/06/19 09:21:55;;;;;;;17.08;9.93;;;;;;;40.88;18.30;98165.88;4898024;29;20995;-50
2022/06/19 09:24:51;;;;;;;11.60;4.22;;;;;;;41.28;19.47;98146.75;4913884;29;20036;-50
2022/06/19 09:27:23;;;;;;;11.15;4.40;;;;;;;41.84;17.99;98157.94;4913880;29;20028;-52
2022/06/19 09:29:59;;;;;;;240.02;217.38;;;;;;;41.67;18.21;98161.81;4913864;29;20544;-49
2022/06/19 09:32:56;;;;;;;266.00;207.30;;;;;;;41.77;18.18;98160.03;4913775;29;20059;-50
2022/06/19 09:36:13;;;;;;;407.40;200.73;;;;;;;41.61;18.22;98149.72;4913666;29;20089;-52
2022/06/19 09:39:06;;;;;;;250.00;108.80;;;;;;;41.28;17.93;98164.03;4920630;29;20102;-51
2022/06/19 09:41:41;;;;;;;48.40;16.67;;;;;;;41.06;18.50;98160.06;4953869;29;20034;-52
2022/06/19 09:44:39;;;;;;;13.82;6.35;;;;;;;41.26;18.46;98162.91;4954017;29;20027;-52
2022/06/19 09:47:05;;;;;;;10.43;4.50;;;;;;;41.54;18.14;98152.59;4947102;29;20042;-52
2022/06/19 09:49:38;;;;;;;13.18;4.38;;;;;;;41.36;18.07;98156.44;4936618;29;20401;-50
2022/06/19 09:52:11;;;;;;;6.60;3.35;;;;;;;41.16;18.46;98167.38;4936674;29;20031;-50
2022/06/19 09:54:49;;;;;;;23.57;7.77;;;;;;;41.28;18.08;98164.03;4954046;29;20035;-50
2022/06/19 09:57:21;;;;;;;192.25;174.75;;;;;;;41.06;18.26;98147.09;4935777;29;20035;-50
2022/06/19 10:00:06;;;;;;;99.03;57.95;;;;;;;40.96;18.33;98139.00;4953716;29;20023;-49
2022/06/19 10:02:47;;;;;;;188.88;162.10;;;;;;;40.53;18.85;98149.44;4953639;29;20031;-50
2022/06/19 10:05:54;;;;;;;118.32;84.55;;;;;;;40.80;19.00;98154.19;4953724;29;20034;-52
2022/06/19 10:08:33;;;;;;;27.83;21.85;;;;;;;41.38;18.43;98154.03;4933434;29;20559;-50
2022/06/19 10:11:26;;;;;;;13.98;6.88;;;;;;;41.74;17.95;98153.41;4953726;29;20033;-53
2022/06/19 10:14:04;;;;;;;10.75;5.22;;;;;;;41.57;18.02;98146.22;4936418;29;20034;-52
2022/06/19 10:16:54;;;;;;;10.18;4.00;;;;;;;41.50;17.88;98144.38;4936327;29;20039;-51
2022/06/19 10:19:32;;;;;;;21.48;6.55;;;;;;;41.08;18.22;98147.44;4953616;29;20031;-52
2022/06/19 10:22:28;;;;;;;9.10;3.53;;;;;;;41.43;17.68;98141.75;4953250;29;20074;-52
2022/06/19 10:25:19;;;;;;;11.48;3.25;;;;;;;41.47;18.07;98148.75;4953833;29;20456;-51
2022/06/19 10:27:58;;;;;;;14.35;4.47;;;;;;;41.61;17.69;98125.69;4953564;29;20031;-50
2022/06/19 10:30:38;;;;;;;7.72;3.35;;;;;;;41.32;17.60;98128.19;4953499;28;20027;-50
2022/06/19 10:33:23;;;;;;;15.48;5.03;;;;;;;40.42;18.58;98102.06;4953523;28;20055;-51
2022/06/19 10:36:17;;;;;;;22.40;18.02;;;;;;;40.00;19.23;98144.63;4952107;29;20035;-51
2022/06/19 10:39:06;;;;;;;11.45;5.10;;;;;;;40.27;19.35;98156.47;4952081;29;20118;-49
2022/06/19 10:42:04;;;;;;;12.93;6.57;;;;;;;40.32;19.04;98133.25;4953503;28;20401;-51
2022/06/19 10:44:49;;;;;;;29.80;24.92;;;;;;;40.49;19.40;98121.22;4953367;29;20027;-53
2022/06/19 10:47:36;;;;;;;88.03;78.88;;;;;;;40.49;19.61;98129.47;4953286;29;20023;-52
2022/06/19 10:50:08;;;;;;;105.95;93.90;;;;;;;40.87;18.96;98123.00;4953328;29;20042;-51
2022/06/19 10:53:02;;;;;;;362.50;294.35;;;;;;;41.15;18.16;98112.72;4953308;28;20071;-51
2022/06/19 10:55:40;;;;;;;133.70;119.78;;;;;;;40.56;19.21;98119.56;4951929;29;20039;-49
2022/06/19 10:58:13;;;;;;;509.35;460.20;;;;;;;40.75;18.81;98116.16;4953338;28;20490;-50
2022/06/19 11:00:39;;;;;;;165.18;150.05;;;;;;;40.52;18.74;98127.84;4951908;29;20031;-49
2022/06/19 11:06:17;;;;;;;76.35;68.38;;;;;;;39.62;20.05;98095.19;4953452;29;20050;-50
2022/06/19 11:08:47;;;;;;;51.53;46.30;;;;;;;39.35;21.86;98112.34;4955060;28;20073;-50
2022/06/19 11:11:16;;;;;;;91.90;83.03;;;;;;;39.35;21.45;98126.06;4956603;28;20020;-50
2022/06/19 11:14:03;;;;;;;76.93;68.80;;;;;;;39.17;20.49;98131.72;4956513;28;20039;-51
2022/06/19 11:16:31;;;;;;;96.72;84.30;;;;;;;38.98;20.79;98122.09;4956520;28;20024;-52
2022/06/19 11:18:57;;;;;;;86.75;78.97;;;;;;;39.41;20.15;98121.69;4956491;28;20078;-52
2022/06/19 11:21:31;;;;;;;17.42;10.32;;;;;;;39.37;20.05;98120.94;4956204;28;20465;-53
2022/06/19 11:24:00;;;;;;;14.88;11.38;;;;;;;39.25;20.25;98126.94;4955188;29;20526;-52
2022/06/19 11:26:45;;;;;;;22.30;11.70;;;;;;;39.39;21.08;98118.56;4956289;28;20062;-51
2022/06/19 11:29:13;;;;;;;13.02;7.57;;;;;;;39.60;20.48;98116.81;4956381;28;20491;-51
2022/06/19 11:31:59;;;;;;;40.92;36.22;;;;;;;39.60;20.16;98101.09;4956212;28;20039;-50
2022/06/19 11:34:43;;;;;;;28.33;25.15;;;;;;;39.40;20.44;98109.16;4956179;29;20035;-52
2022/06/19 11:37:28;;;;;;;10.10;5.22;;;;;;;39.08;21.46;98110.25;4956162;28;20030;-51
2022/06/19 11:39:59;;;;;;;8.02;4.30;;;;;;;38.82;20.26;98097.09;4956117;28;20512;-52
2022/06/19 11:42:28;;;;;;;22.20;18.73;;;;;;;38.76;20.82;98094.78;4954700;29;20050;-51
2022/06/19 11:44:55;;;;;;;12.88;7.50;;;;;;;38.52;20.75;98098.50;4954617;29;20429;-51
2022/06/19 11:47:42;;;;;;;15.60;8.88;;;;;;;38.36;21.70;98105.22;4955849;28;20022;-52
2022/06/19 11:50:33;;;;;;;22.33;16.58;;;;;;;38.33;21.71;98083.31;4955969;28;20074;-52
2022/06/19 11:53:11;;;;;;;11.88;8.98;;;;;;;38.29;22.62;98094.28;4955911;28;20023;-50
2022/06/19 11:55:52;;;;;;;8.40;3.97;;;;;;;38.41;20.68;98081.31;4955851;28;20481;-51
2022/06/19 11:58:26;;;;;;;10.35;9.20;;;;;;;38.23;20.68;98073.97;4954451;29;20023;-51